Time;durP1;ratioP1;P1;durP2;ratioP2;P2;SDS_P1;SDS_P2;PMS_P1;PMS_P2;Temp;Humidity;BMP_temperature;BMP_pressure;BME280_temperature;BME280_humidity;BME280_pressure;Samples;Min_cycle;Max_cycle;Signal;HPM_P1;HPM_P2
2020/12/23 00:00:09;;;;;;;0.80;0.38;;;21.50;46.70;;;;;;5043738;28;20036;-83
2020/12/23 00:02:35;;;;;;;0.95;0.40;;;21.50;46.60;;;;;;5055410;28;20824;-85
2020/12/23 00:05:03;;;;;;;1.30;0.50;;;21.50;46.60;;;;;;5061426;28;20028;-84
2020/12/23 00:07:29;;;;;;;0.73;0.20;;;21.50;46.60;;;;;;5088236;28;20071;-84
2020/12/23 00:09:54;;;;;;;0.93;0.30;;;21.50;46.60;;;;;;5096868;28;20378;-84
2020/12/23 00:12:20;;;;;;;0.82;0.40;;;21.50;46.60;;;;;;5062164;28;20027;-83
2020/12/23 00:14:46;;;;;;;0.50;0.20;;;21.50;46.70;;;;;;5062023;28;20523;-85
2020/12/23 00:17:11;;;;;;;1.33;0.30;;;21.50;46.70;;;;;;5076650;28;20066;-82
2020/12/23 00:19:37;;;;;;;0.95;0.30;;;21.40;46.60;;;;;;5060663;28;20063;-84
2020/12/23 00:22:02;;;;;;;0.93;0.30;;;21.50;46.70;;;;;;5061783;28;20020;-82
2020/12/23 00:24:28;;;;;;;1.10;0.30;;;21.50;46.70;;;;;;5065114;28;20028;-83
2020/12/23 00:26:54;;;;;;;1.33;0.30;;;21.40;46.70;;;;;;5058840;28;20036;-81
2020/12/23 00:29:19;;;;;;;0.65;0.20;;;21.40;46.70;;;;;;5056241;28;20024;-85
2020/12/23 00:31:45;;;;;;;2.08;0.20;;;21.40;46.70;;;;;;5058101;28;20032;-84
2020/12/23 00:34:10;;;;;;;0.70;0.20;;;21.40;46.70;;;;;;5058671;28;20063;-85
2020/12/23 00:36:36;;;;;;;0.60;0.20;;;21.40;46.70;;;;;;5062757;28;20107;-85
2020/12/23 00:39:03;;;;;;;0.65;0.25;;;21.40;46.70;;;;;;5058255;28;20016;-87
2020/12/23 00:41:29;;;;;;;2.10;0.35;;;21.40;46.70;;;;;;5069122;28;20035;-84
2020/12/23 00:43:54;;;;;;;0.55;0.20;;;21.40;46.70;;;;;;5058386;28;20020;-86
2020/12/23 00:46:20;;;;;;;0.45;0.20;;;21.40;46.70;;;;;;5062269;28;20334;-86
2020/12/23 00:48:45;;;;;;;1.15;0.28;;;21.40;46.70;;;;;;5048126;28;20016;-84
2020/12/23 00:51:15;;;;;;;0.50;0.20;;;21.40;46.70;;;;;;5057295;28;20070;-85
2020/12/23 00:53:43;;;;;;;0.68;0.35;;;21.40;46.70;;;;;;5061846;28;20526;-86
2020/12/23 00:56:12;;;;;;;1.00;0.40;;;21.30;46.70;;;;;;5058333;28;20021;-85
2020/12/23 00:58:38;;;;;;;0.75;0.40;;;21.30;46.70;;;;;;5078471;28;20028;-85
2020/12/23 01:01:04;;;;;;;1.40;0.40;;;21.30;46.70;;;;;;5071428;28;20029;-86
2020/12/23 01:03:29;;;;;;;0.93;0.30;;;21.30;46.70;;;;;;5056655;28;20035;-85
2020/12/23 01:05:55;;;;;;;1.55;0.20;;;21.30;46.80;;;;;;5057877;28;20088;-86
2020/12/23 01:08:20;;;;;;;0.70;0.30;;;21.30;46.70;;;;;;5076407;28;20020;-85
2020/12/23 01:10:47;;;;;;;0.90;0.30;;;21.30;46.80;;;;;;5048368;28;20028;-84
2020/12/23 01:13:13;;;;;;;0.70;0.25;;;21.30;46.70;;;;;;5060515;28;20020;-84
2020/12/23 01:15:39;;;;;;;0.50;0.20;;;21.30;46.70;;;;;;5085986;28;20035;-86
2020/12/23 01:18:05;;;;;;;0.65;0.20;;;21.30;46.70;;;;;;5056579;28;20033;-85
2020/12/23 01:20:31;;;;;;;0.73;0.28;;;21.30;46.70;;;;;;5049271;28;20493;-85
2020/12/23 01:22:58;;;;;;;0.57;0.22;;;21.20;46.60;;;;;;5046653;28;20107;-85
2020/12/23 01:25:24;;;;;;;0.82;0.30;;;21.30;46.70;;;;;;5062124;28;20032;-85
2020/12/23 01:27:49;;;;;;;0.73;0.22;;;21.20;46.70;;;;;;5057825;28;20475;-86
2020/12/23 01:30:16;;;;;;;1.55;0.28;;;21.20;46.60;;;;;;5068562;28;20024;-85
2020/12/23 01:32:42;;;;;;;0.60;0.30;;;21.20;46.60;;;;;;5057697;28;20035;-86
2020/12/23 01:35:09;;;;;;;1.13;0.30;;;21.20;46.60;;;;;;5045587;28;20024;-84
2020/12/23 01:37:34;;;;;;;1.00;0.30;;;21.20;46.60;;;;;;5058229;28;20127;-85
2020/12/23 01:40:00;;;;;;;1.23;0.50;;;21.20;46.60;;;;;;5042539;28;20051;-82
2020/12/23 01:42:25;;;;;;;0.80;0.22;;;21.20;46.70;;;;;;5073680;28;20271;-84
2020/12/23 01:44:51;;;;;;;0.55;0.20;;;21.20;46.70;;;;;;5056752;28;20024;-83
2020/12/23 01:47:22;;;;;;;0.70;0.30;;;21.20;46.60;;;;;;5045027;28;20040;-83
2020/12/23 01:49:51;;;;;;;0.70;0.20;;;21.20;46.80;;;;;;5059650;28;20020;-85
2020/12/23 01:52:18;;;;;;;1.02;0.30;;;21.20;46.70;;;;;;5060273;28;20288;-85
2020/12/23 01:54:43;;;;;;;0.50;0.20;;;21.10;46.80;;;;;;5059308;28;20032;-83
2020/12/23 01:57:11;;;;;;;0.90;0.30;;;21.10;46.80;;;;;;5046688;28;20107;-85
2020/12/23 01:59:37;;;;;;;2.67;0.60;;;21.10;46.70;;;;;;5058618;28;20036;-86
2020/12/23 02:02:29;;;;;;;1.27;0.40;;;21.10;46.70;;;;;;5052416;28;20117;-85
2020/12/23 02:04:58;;;;;;;0.80;0.30;;;21.10;46.60;;;;;;5055701;28;20016;-86
2020/12/23 02:07:24;;;;;;;1.15;0.35;;;21.10;46.70;;;;;;5063203;28;20107;-83
2020/12/23 02:09:52;;;;;;;1.85;0.32;;;21.10;46.70;;;;;;5076502;28;20070;-86
2020/12/23 02:12:18;;;;;;;0.65;0.38;;;21.10;46.70;;;;;;5049081;28;20052;-83
2020/12/23 02:14:44;;;;;;;1.02;0.52;;;21.10;46.70;;;;;;5052789;28;20065;-84
2020/12/23 02:17:10;;;;;;;2.30;0.30;;;21.10;46.70;;;;;;5057964;28;20107;-86
2020/12/23 02:19:49;;;;;;;0.65;0.30;;;21.10;46.70;;;;;;5050400;28;20070;-84
2020/12/23 02:22:20;;;;;;;0.47;0.20;;;21.10;46.60;;;;;;5047991;28;20633;-85
2020/12/23 02:24:47;;;;;;;4.75;0.30;;;21.10;46.70;;;;;;5052786;28;20056;-84
2020/12/23 02:27:13;;;;;;;1.00;0.30;;;21.10;46.70;;;;;;5076753;28;20028;-84
2020/12/23 02:29:50;;;;;;;1.38;0.20;;;21.10;46.70;;;;;;5076636;28;20024;-83
2020/12/23 02:32:16;;;;;;;0.70;0.30;;;21.10;46.70;;;;;;5059899;28;20028;-83
2020/12/23 02:34:42;;;;;;;1.30;0.20;;;21.10;46.70;;;;;;5055268;28;20119;-86
2020/12/23 02:37:09;;;;;;;0.57;0.30;;;21.10;46.70;;;;;;5048668;28;20025;-84
2020/12/23 02:39:43;;;;;;;0.90;0.40;;;21.10;46.70;;;;;;5054860;28;20786;-85
2020/12/23 02:42:27;;;;;;;0.95;0.38;;;21.10;46.70;;;;;;5079518;28;20043;-85
2020/12/23 02:45:11;;;;;;;0.52;0.20;;;21.10;46.60;;;;;;5065740;28;20079;-84
2020/12/23 02:47:37;;;;;;;0.70;0.32;;;21.10;46.70;;;;;;5051570;28;20024;-84
2020/12/23 02:50:03;;;;;;;0.82;0.20;;;21.10;46.70;;;;;;5056542;28;20092;-84
2020/12/23 02:52:28;;;;;;;1.17;0.30;;;21.00;46.60;;;;;;5058753;28;20093;-85
2020/12/23 02:54:54;;;;;;;0.70;0.30;;;21.00;46.60;;;;;;5048565;28;20024;-86
2020/12/23 02:57:19;;;;;;;0.82;0.22;;;21.10;46.70;;;;;;5054164;28;20028;-85
2020/12/23 02:59:45;;;;;;;0.77;0.30;;;21.10;46.70;;;;;;5060058;28;20536;-82
2020/12/23 03:02:10;;;;;;;0.40;0.20;;;21.00;46.70;;;;;;5063359;28;20070;-84
2020/12/23 03:04:36;;;;;;;0.90;0.38;;;21.00;46.70;;;;;;5065134;28;20058;-85
2020/12/23 03:07:02;;;;;;;1.05;0.30;;;21.00;46.70;;;;;;5075379;28;21246;-83
2020/12/23 03:09:27;;;;;;;0.75;0.30;;;21.00;46.70;;;;;;5089022;28;20047;-84
2020/12/23 03:11:53;;;;;;;0.50;0.20;;;21.00;46.70;;;;;;5068357;28;20028;-85
2020/12/23 03:14:19;;;;;;;0.70;0.30;;;21.10;46.60;;;;;;5039153;28;20494;-85
2020/12/23 03:16:44;;;;;;;0.70;0.30;;;21.00;46.60;;;;;;5064128;28;20486;-83
2020/12/23 03:19:10;;;;;;;0.65;0.28;;;21.00;46.60;;;;;;5059418;28;20031;-84
2020/12/23 03:21:35;;;;;;;0.65;0.40;;;21.00;46.70;;;;;;5059904;28;20031;-87
2020/12/23 03:24:01;;;;;;;0.73;0.30;;;21.00;46.70;;;;;;5095016;28;20089;-86
2020/12/23 03:26:27;;;;;;;1.00;0.45;;;21.00;46.70;;;;;;5051327;28;20155;-83
2020/12/23 03:28:52;;;;;;;0.45;0.20;;;21.00;46.60;;;;;;5066950;28;20079;-85
2020/12/23 03:31:18;;;;;;;1.20;0.40;;;21.00;46.70;;;;;;5085517;28;20017;-86
2020/12/23 03:33:44;;;;;;;0.60;0.20;;;21.00;46.70;;;;;;5056658;28;20111;-85
2020/12/23 03:36:10;;;;;;;1.02;0.30;;;21.00;46.70;;;;;;5075550;28;20393;-85
2020/12/23 03:38:36;;;;;;;0.95;0.30;;;21.00;46.60;;;;;;5055917;28;20028;-85
2020/12/23 03:41:01;;;;;;;0.77;0.40;;;21.00;46.70;;;;;;5049177;28;20520;-85
2020/12/23 03:43:27;;;;;;;0.82;0.40;;;21.00;46.70;;;;;;5081930;28;20039;-85
2020/12/23 03:45:53;;;;;;;0.80;0.30;;;21.00;46.60;;;;;;5063266;28;20116;-82
2020/12/23 03:48:19;;;;;;;0.98;0.35;;;21.00;46.60;;;;;;5074868;28;20193;-84
2020/12/23 03:50:45;;;;;;;1.08;0.40;;;21.00;46.60;;;;;;5078010;28;20026;-87
2020/12/23 03:53:11;;;;;;;0.80;0.30;;;21.00;46.70;;;;;;5054123;28;20033;-81
2020/12/23 03:55:36;;;;;;;0.50;0.30;;;20.90;46.50;;;;;;5067598;28;20030;-84
2020/12/23 03:58:02;;;;;;;1.20;0.35;;;20.90;46.60;;;;;;5063588;28;20483;-84
2020/12/23 04:00:28;;;;;;;0.80;0.30;;;20.90;46.60;;;;;;5079024;28;20461;-83
2020/12/23 04:02:53;;;;;;;1.30;0.28;;;20.90;46.60;;;;;;5051718;28;20110;-84
2020/12/23 04:05:19;;;;;;;0.70;0.40;;;20.90;46.50;;;;;;5047516;28;20411;-84
2020/12/23 04:07:44;;;;;;;0.70;0.45;;;20.90;46.60;;;;;;5058907;28;20016;-84
2020/12/23 04:10:10;;;;;;;0.93;0.30;;;20.90;46.70;;;;;;5069624;28;20406;-84
2020/12/23 04:12:36;;;;;;;0.68;0.20;;;20.90;46.50;;;;;;5075507;28;20028;-85
2020/12/23 04:15:06;;;;;;;0.85;0.38;;;20.90;46.50;;;;;;5097523;28;20020;-86
2020/12/23 04:17:32;;;;;;;0.90;0.30;;;20.90;46.50;;;;;;5062417;28;20493;-84
2020/12/23 04:19:58;;;;;;;2.35;0.35;;;20.90;46.60;;;;;;5062301;28;20066;-85
2020/12/23 04:22:23;;;;;;;0.80;0.40;;;20.90;46.60;;;;;;5076197;28;20085;-84
2020/12/23 04:24:49;;;;;;;0.90;0.40;;;20.90;46.60;;;;;;5058858;28;20115;-86
2020/12/23 04:27:15;;;;;;;1.30;0.40;;;20.90;46.60;;;;;;5052187;28;20052;-84
2020/12/23 04:29:40;;;;;;;0.77;0.50;;;20.90;46.60;;;;;;5058754;28;20031;-85
2020/12/23 04:32:06;;;;;;;0.70;0.40;;;20.90;46.60;;;;;;5050532;28;20229;-87
2020/12/23 04:34:31;;;;;;;0.82;0.30;;;20.90;46.70;;;;;;5053048;28;20478;-85
2020/12/23 04:36:57;;;;;;;1.45;0.40;;;20.90;46.60;;;;;;5051757;28;20036;-86
2020/12/23 04:39:22;;;;;;;0.70;0.30;;;20.90;46.70;;;;;;5057252;28;20025;-85
2020/12/23 04:41:48;;;;;;;0.80;0.40;;;20.90;46.70;;;;;;5065814;28;20064;-84
2020/12/23 04:44:14;;;;;;;2.53;0.30;;;20.90;46.60;;;;;;5068376;28;20036;-84
2020/12/23 04:46:41;;;;;;;0.95;0.40;;;20.80;46.70;;;;;;5046177;28;20039;-85
2020/12/23 04:49:08;;;;;;;0.73;0.30;;;20.80;46.60;;;;;;5053875;28;20027;-84
2020/12/23 04:51:39;;;;;;;0.80;0.30;;;20.90;46.70;;;;;;5048322;28;20066;-85
2020/12/23 04:54:06;;;;;;;0.77;0.30;;;20.80;46.60;;;;;;5061723;28;20427;-83
2020/12/23 04:56:34;;;;;;;1.13;0.40;;;20.90;46.60;;;;;;5061780;28;20035;-84
2020/12/23 04:59:01;;;;;;;0.80;0.30;;;20.90;46.70;;;;;;5062209;28;20027;-83
2020/12/23 05:01:27;;;;;;;1.40;0.30;;;20.80;46.60;;;;;;5051350;28;20029;-82
2020/12/23 05:03:54;;;;;;;0.70;0.38;;;20.80;46.60;;;;;;5076117;28;20169;-85
2020/12/23 05:06:20;;;;;;;0.50;0.20;;;20.80;46.50;;;;;;5047356;28;20036;-85
2020/12/23 05:08:47;;;;;;;0.70;0.45;;;20.80;46.60;;;;;;5068370;28;20053;-85
2020/12/23 05:11:13;;;;;;;0.80;0.35;;;20.80;46.50;;;;;;5052848;28;20023;-84
2020/12/23 05:13:40;;;;;;;0.93;0.40;;;20.80;46.50;;;;;;5041795;28;20260;-82
2020/12/23 05:16:07;;;;;;;0.50;0.20;;;20.80;46.50;;;;;;5065631;28;20028;-86
2020/12/23 05:18:38;;;;;;;1.83;0.40;;;20.80;46.60;;;;;;5053365;28;20056;-82
2020/12/23 05:21:14;;;;;;;0.82;0.40;;;20.80;46.60;;;;;;5044016;28;20805;-84
2020/12/23 05:23:41;;;;;;;0.70;0.20;;;20.80;46.50;;;;;;5077668;28;20092;-85
2020/12/23 05:26:07;;;;;;;1.50;0.30;;;20.80;46.60;;;;;;5074286;28;20017;-83
2020/12/23 05:28:33;;;;;;;0.60;0.30;;;20.80;46.70;;;;;;5058780;28;20108;-84
2020/12/23 05:31:05;;;;;;;0.85;0.35;;;20.80;46.60;;;;;;5091362;28;20104;-84
2020/12/23 05:33:35;;;;;;;0.90;0.40;;;20.80;46.60;;;;;;5078485;28;20024;-82
2020/12/23 05:36:06;;;;;;;0.70;0.30;;;20.80;46.60;;;;;;5077724;28;20024;-85
2020/12/23 05:38:33;;;;;;;1.13;0.30;;;20.80;46.60;;;;;;5076206;28;20402;-86
2020/12/23 05:41:04;;;;;;;0.60;0.30;;;20.80;46.60;;;;;;5077328;28;20546;-85
2020/12/23 05:43:30;;;;;;;0.82;0.30;;;20.70;46.60;;;;;;5047592;28;20489;-81
2020/12/23 05:45:58;;;;;;;1.55;0.32;;;20.80;46.60;;;;;;5061309;28;20028;-86
2020/12/23 05:48:24;;;;;;;1.45;0.50;;;20.80;46.50;;;;;;5060929;28;20113;-84
2020/12/23 05:50:50;;;;;;;0.80;0.30;;;20.80;46.60;;;;;;5061755;28;20024;-84
2020/12/23 05:53:16;;;;;;;0.90;0.30;;;20.70;46.60;;;;;;5054677;28;20063;-84
2020/12/23 05:55:47;;;;;;;1.00;0.40;;;20.70;46.60;;;;;;5079192;28;20126;-82
2020/12/23 05:58:23;;;;;;;0.70;0.40;;;20.70;46.60;;;;;;5061094;28;20039;-83
2020/12/23 06:00:50;;;;;;;0.98;0.30;;;20.70;46.70;;;;;;5057765;28;20029;-83
2020/12/23 06:03:42;;;;;;;0.60;0.25;;;20.70;46.70;;;;;;5070269;28;20047;-83
2020/12/23 06:06:08;;;;;;;1.23;0.30;;;20.70;46.60;;;;;;5054850;28;20024;-83
2020/12/23 06:08:38;;;;;;;0.82;0.38;;;20.70;46.60;;;;;;5070954;28;20028;-84
2020/12/23 06:11:27;;;;;;;0.60;0.20;;;20.70;46.60;;;;;;5051645;28;20019;-84
2020/12/23 06:14:13;;;;;;;0.63;0.20;;;20.70;46.60;;;;;;5077537;28;20028;-85
2020/12/23 06:16:43;;;;;;;0.50;0.30;;;20.70;46.50;;;;;;5068910;28;20549;-82
2020/12/23 06:19:11;;;;;;;1.10;0.20;;;20.70;46.50;;;;;;5076131;28;20032;-83
2020/12/23 06:21:37;;;;;;;1.00;0.30;;;20.70;46.50;;;;;;5055667;28;20078;-84
2020/12/23 06:24:11;;;;;;;0.70;0.40;;;20.70;46.50;;;;;;5056650;28;20425;-83
2020/12/23 06:26:42;;;;;;;0.80;0.20;;;20.70;46.50;;;;;;5062790;28;20044;-83
2020/12/23 06:29:12;;;;;;;0.55;0.20;;;20.70;46.50;;;;;;5063647;22;20060;-46
2020/12/23 06:31:59;;;;;;;0.80;0.30;;;20.70;46.50;;;;;;5064497;28;20024;-46
2020/12/23 06:34:34;;;;;;;0.60;0.30;;;20.70;46.50;;;;;;5062924;28;20055;-48
2020/12/23 06:36:59;;;;;;;0.70;0.20;;;20.70;46.60;;;;;;5033202;28;20497;-46
2020/12/23 06:39:26;;;;;;;0.77;0.30;;;20.70;46.60;;;;;;5062696;28;20035;-49
2020/12/23 06:42:01;;;;;;;0.57;0.25;;;20.70;46.50;;;;;;5063169;28;20047;-47
2020/12/23 06:44:44;;;;;;;0.88;0.30;;;20.70;46.50;;;;;;5066572;28;20040;-46
2020/12/23 06:47:17;;;;;;;0.45;0.22;;;20.70;46.60;;;;;;5059837;28;20028;-48
2020/12/23 06:49:44;;;;;;;0.52;0.20;;;20.70;46.60;;;;;;5066934;28;20021;-47
2020/12/23 06:52:22;;;;;;;0.60;0.20;;;20.80;46.50;;;;;;5067981;28;20052;-51
2020/12/23 06:55:01;;;;;;;0.50;0.20;;;20.90;46.30;;;;;;5055315;28;20029;-44
2020/12/23 07:00:13;;;;;;;0.40;0.10;;;21.20;45.70;;;;;;5066890;28;20090;-49
2020/12/23 07:02:43;;;;;;;0.50;0.20;;;21.30;45.50;;;;;;5066477;28;20043;-47
2020/12/23 07:05:13;;;;;;;0.40;0.10;;;21.40;45.30;;;;;;5054955;28;20505;-48
2020/12/23 07:07:43;;;;;;;0.70;0.20;;;21.50;45.20;;;;;;5058375;28;20033;-53
2020/12/23 07:10:16;;;;;;;0.55;0.20;;;21.50;45.10;;;;;;5064431;28;20048;-45
2020/12/23 07:12:48;;;;;;;0.57;0.20;;;21.60;45.00;;;;;;5071641;28;20394;-48
2020/12/23 07:15:19;;;;;;;0.60;0.20;;;21.60;45.00;;;;;;5068407;28;20541;-50
2020/12/23 07:17:46;;;;;;;0.75;0.20;;;21.60;44.90;;;;;;5060028;28;20028;-47
2020/12/23 07:20:13;;;;;;;0.30;0.10;;;21.70;44.90;;;;;;5054295;28;20492;-47
2020/12/23 07:22:40;;;;;;;0.40;0.20;;;21.70;44.90;;;;;;5062710;28;20052;-47
2020/12/23 07:25:06;;;;;;;0.40;0.10;;;21.70;44.90;;;;;;5046113;28;20080;-45
2020/12/23 07:27:32;;;;;;;0.47;0.10;;;21.80;44.90;;;;;;5058619;28;20048;-47
2020/12/23 07:30:07;;;;;;;0.57;0.10;;;21.80;44.90;;;;;;5060047;28;20082;-47
2020/12/23 07:32:33;;;;;;;0.40;0.10;;;21.80;45.00;;;;;;5053399;28;20033;-47
2020/12/23 07:34:59;;;;;;;0.60;0.20;;;21.80;45.00;;;;;;5051762;28;20031;-47
2020/12/23 07:37:27;;;;;;;0.38;0.17;;;21.70;45.00;;;;;;5060018;28;20033;-47
2020/12/23 07:39:52;;;;;;;0.40;0.10;;;21.80;45.00;;;;;;5032830;28;20032;-45
2020/12/23 07:42:19;;;;;;;0.40;0.10;;;21.70;45.10;;;;;;5055296;28;20662;-43
2020/12/23 07:44:52;;;;;;;0.30;0.20;;;21.70;45.10;;;;;;5059164;28;20404;-53
2020/12/23 07:47:24;;;;;;;0.60;0.13;;;21.70;45.30;;;;;;5056870;28;20459;-41
2020/12/23 07:50:16;;;;;;;0.30;0.10;;;21.60;45.40;;;;;;5052866;28;20033;-45
2020/12/23 07:52:42;;;;;;;;;;;21.60;45.80;;;;;;5046154;28;20033;-46
2020/12/23 07:55:15;;;;;;;0.63;0.10;;;21.50;45.70;;;;;;5063379;28;20327;-48
2020/12/23 07:57:41;;;;;;;0.47;0.10;;;21.50;45.80;;;;;;5062920;28;20128;-47
2020/12/23 08:00:13;;;;;;;0.65;0.30;;;21.50;45.90;;;;;;5067892;28;20099;-48
2020/12/23 08:02:40;;;;;;;0.50;0.10;;;21.50;45.80;;;;;;5052100;28;20044;-45
2020/12/23 08:05:08;;;;;;;2.00;0.20;;;21.50;46.40;;;;;;5060704;28;20397;-49
2020/12/23 08:07:38;;;;;;;0.82;0.10;;;21.50;46.00;;;;;;5061110;28;20451;-47
2020/12/23 08:10:09;;;;;;;0.43;0.10;;;21.50;45.90;;;;;;5067161;28;20078;-45
2020/12/23 08:12:36;;;;;;;0.88;0.10;;;21.50;46.00;;;;;;5049624;28;20032;-44
2020/12/23 08:15:12;;;;;;;0.50;0.20;;;21.50;46.00;;;;;;5065938;28;20666;-44
2020/12/23 08:17:38;;;;;;;0.57;0.10;;;21.40;45.90;;;;;;5065593;28;20401;-47
2020/12/23 08:20:06;;;;;;;0.20;0.10;;;21.50;46.00;;;;;;5061599;28;20048;-47
2020/12/23 08:22:36;;;;;;;0.32;0.10;;;21.40;45.90;;;;;;5071546;28;20071;-46
2020/12/23 08:25:04;;;;;;;0.35;0.10;;;21.40;45.90;;;;;;5070420;28;20041;-49
2020/12/23 08:27:30;;;;;;;0.43;0.10;;;21.50;46.00;;;;;;5067918;28;20021;-47
2020/12/23 08:29:57;;;;;;;0.30;0.10;;;21.40;46.00;;;;;;5066012;28;20393;-46
2020/12/23 08:32:30;;;;;;;0.20;0.10;;;21.40;46.00;;;;;;5071096;28;20105;-44
2020/12/23 08:34:59;;;;;;;0.65;0.20;;;21.40;46.00;;;;;;5069665;28;20028;-46
2020/12/23 08:37:25;;;;;;;3.15;0.20;;;21.30;46.10;;;;;;5057172;28;20040;-45
2020/12/23 08:39:58;;;;;;;0.30;0.10;;;21.30;46.10;;;;;;5067536;28;20086;-48
2020/12/23 08:42:24;;;;;;;0.45;0.20;;;21.40;46.20;;;;;;5068415;28;20113;-47
2020/12/23 08:44:55;;;;;;;0.38;0.10;;;21.40;45.90;;;;;;5069821;28;20034;-47
2020/12/23 08:47:27;;;;;;;0.30;0.10;;;21.50;45.60;;;;;;5060822;28;20075;-49
2020/12/23 08:49:54;;;;;;;0.20;0.08;;;21.60;45.60;;;;;;5062545;28;20037;-45
2020/12/23 08:52:22;;;;;;;0.88;0.10;;;21.60;45.60;;;;;;5060320;28;20032;-46
2020/12/23 08:54:49;;;;;;;0.88;0.10;;;21.60;45.60;;;;;;5050471;28;20454;-47
2020/12/23 08:57:20;;;;;;;0.52;0.10;;;21.60;45.70;;;;;;5051896;28;20028;-49
2020/12/23 08:59:46;;;;;;;0.30;0.10;;;21.70;45.60;;;;;;5076334;28;20028;-48
2020/12/23 09:02:13;;;;;;;0.75;0.20;;;21.70;45.60;;;;;;5061057;28;20035;-48
2020/12/23 09:07:21;;;;;;;4.72;0.17;;;21.80;45.70;;;;;;5063582;28;20036;-47
2020/12/23 09:09:47;;;;;;;0.38;0.10;;;21.70;45.80;;;;;;5066601;28;20040;-48
2020/12/23 09:12:20;;;;;;;0.45;0.17;;;21.80;45.80;;;;;;5068159;28;20400;-45
2020/12/23 09:14:46;;;;;;;0.90;0.10;;;21.80;45.90;;;;;;5066204;28;20032;-46
2020/12/23 09:17:23;;;;;;;2.78;0.20;;;21.60;45.90;;;;;;5052444;28;20409;-44
2020/12/23 09:20:02;;;;;;;1.08;0.20;;;21.60;46.10;;;;;;5056613;28;20054;-43
2020/12/23 09:22:29;;;;;;;1.20;0.20;;;21.50;46.30;;;;;;5060166;28;20052;-44
2020/12/23 09:25:14;;;;;;;0.50;0.20;;;21.50;46.40;;;;;;5036088;28;20037;-45
2020/12/23 09:27:40;;;;;;;1.23;0.30;;;21.40;46.40;;;;;;5039334;28;20056;-44
2020/12/23 09:30:07;;;;;;;0.82;0.20;;;21.40;46.40;;;;;;5064358;28;20021;-46
2020/12/23 09:32:33;;;;;;;0.95;0.10;;;21.40;46.40;;;;;;5065043;28;20021;-43
2020/12/23 09:35:15;;;;;;;0.65;0.20;;;21.40;46.40;;;;;;5032404;28;20039;-44
2020/12/23 09:37:43;;;;;;;0.40;0.10;;;21.40;46.40;;;;;;5049762;28;20032;-45
2020/12/23 09:40:11;;;;;;;0.90;0.13;;;21.40;46.40;;;;;;5051856;28;20501;-45
2020/12/23 09:42:37;;;;;;;0.38;0.20;;;21.40;46.40;;;;;;5055885;28;20032;-44
2020/12/23 09:45:03;;;;;;;0.35;0.10;;;21.40;46.40;;;;;;5054916;28;20028;-48
2020/12/23 09:47:28;;;;;;;0.40;0.10;;;21.40;46.30;;;;;;5056771;28;20021;-44
2020/12/23 09:49:54;;;;;;;2.35;0.30;;;21.30;46.30;;;;;;5068023;28;20070;-45
2020/12/23 09:52:20;;;;;;;0.45;0.20;;;21.40;46.20;;;;;;5053899;28;20031;-46
2020/12/23 09:54:45;;;;;;;1.95;0.20;;;21.50;46.00;;;;;;5053069;28;20470;-43
2020/12/23 09:57:11;;;;;;;0.73;0.40;;;21.60;45.80;;;;;;5057350;28;20037;-47
2020/12/23 09:59:36;;;;;;;0.32;0.10;;;21.70;45.80;;;;;;5060344;28;20575;-45
2020/12/23 10:02:02;;;;;;;0.32;0.10;;;21.80;45.70;;;;;;5056214;28;20025;-45
2020/12/23 10:04:27;;;;;;;0.50;0.22;;;21.90;45.60;;;;;;5050453;28;20068;-47
2020/12/23 10:06:53;;;;;;;0.82;0.20;;;22.00;45.40;;;;;;5059751;28;20059;-44
2020/12/23 10:09:18;;;;;;;0.45;0.20;;;22.10;45.40;;;;;;5063093;28;20024;-46
2020/12/23 10:11:44;;;;;;;1.10;0.20;;;22.20;45.30;;;;;;5062761;28;20017;-45
2020/12/23 10:14:09;;;;;;;0.73;0.20;;;22.30;45.30;;;;;;5065961;28;20048;-48
2020/12/23 10:16:35;;;;;;;1.15;0.30;;;22.40;45.10;;;;;;5054740;28;20036;-47
2020/12/23 10:19:02;;;;;;;0.50;0.20;;;22.40;45.10;;;;;;5066097;28;20028;-44
2020/12/23 10:21:28;;;;;;;0.68;0.20;;;22.40;45.10;;;;;;5064308;28;20493;-46
2020/12/23 10:23:54;;;;;;;0.85;0.30;;;22.40;45.40;;;;;;5057680;28;20029;-45
2020/12/23 10:26:20;;;;;;;0.60;0.20;;;22.40;45.50;;;;;;5057936;28;20032;-45
2020/12/23 10:28:45;;;;;;;1.73;0.30;;;22.40;45.60;;;;;;5057909;28;20392;-42
2020/12/23 10:31:12;;;;;;;0.40;0.10;;;22.40;45.40;;;;;;5064718;28;20016;-46
2020/12/23 10:33:37;;;;;;;0.50;0.20;;;22.40;45.50;;;;;;5056699;28;20063;-43
2020/12/23 10:36:08;;;;;;;1.67;0.30;;;22.50;45.50;;;;;;5059753;28;20389;-49
2020/12/23 10:38:33;;;;;;;0.98;0.40;;;22.50;45.50;;;;;;5046539;28;20032;-48
2020/12/23 10:40:59;;;;;;;0.93;0.30;;;22.60;45.50;;;;;;5059487;28;20058;-42
2020/12/23 10:43:25;;;;;;;0.55;0.20;;;22.60;45.30;;;;;;5060284;28;20025;-48
2020/12/23 10:45:50;;;;;;;0.70;0.28;;;22.60;45.30;;;;;;5020798;28;20071;-45
2020/12/23 10:48:17;;;;;;;1.10;0.35;;;22.60;45.40;;;;;;5037132;28;20063;-46
2020/12/23 10:50:43;;;;;;;1.08;0.60;;;22.50;45.40;;;;;;5065837;28;20032;-43
2020/12/23 10:53:09;;;;;;;1.25;0.40;;;22.50;45.40;;;;;;5053535;28;20147;-45
2020/12/23 10:55:35;;;;;;;2.83;0.57;;;22.50;45.50;;;;;;5061688;28;20119;-43
2020/12/23 10:58:00;;;;;;;1.70;0.50;;;22.50;45.60;;;;;;5059637;28;20170;-42
2020/12/23 11:00:26;;;;;;;1.70;0.63;;;22.40;45.70;;;;;;5053612;28;20036;-42
2020/12/23 11:02:51;;;;;;;1.00;0.40;;;22.40;46.00;;;;;;5056204;28;20029;-50
2020/12/23 11:05:18;;;;;;;2.22;0.60;;;22.20;46.30;;;;;;5052799;28;20043;-49
2020/12/23 11:07:43;;;;;;;1.65;0.30;;;22.20;46.50;;;;;;5055052;28;20063;-49
2020/12/23 11:10:09;;;;;;;0.82;0.40;;;22.10;46.50;;;;;;5056574;28;20055;-50
2020/12/23 11:12:35;;;;;;;1.10;0.50;;;22.10;46.50;;;;;;5056786;28;20048;-50
2020/12/23 11:15:00;;;;;;;1.58;0.32;;;22.20;46.50;;;;;;5048894;28;20090;-47
2020/12/23 11:17:26;;;;;;;1.20;0.50;;;22.20;46.50;;;;;;5048301;28;20139;-44
2020/12/23 11:19:54;;;;;;;1.48;0.45;;;22.30;46.40;;;;;;5047286;28;20527;-49
2020/12/23 11:22:20;;;;;;;1.02;0.50;;;22.30;46.30;;;;;;5047932;28;20048;-49
2020/12/23 11:24:46;;;;;;;1.50;0.47;;;22.40;46.30;;;;;;5037563;28;20033;-45
2020/12/23 11:27:11;;;;;;;1.55;0.60;;;22.40;46.30;;;;;;5051582;28;20108;-46
2020/12/23 11:29:37;;;;;;;3.53;0.47;;;22.40;46.30;;;;;;5050897;28;20129;-48
2020/12/23 11:32:03;;;;;;;1.77;0.70;;;22.30;46.40;;;;;;5051160;28;20078;-50
2020/12/23 11:34:28;;;;;;;6.53;0.60;;;22.30;46.40;;;;;;5053595;28;20033;-49
2020/12/23 11:36:57;;;;;;;1.73;0.43;;;22.30;46.50;;;;;;5047846;28;20071;-44
2020/12/23 11:39:23;;;;;;;4.22;0.63;;;22.30;46.30;;;;;;5050818;28;20028;-46
2020/12/23 11:41:54;;;;;;;0.95;0.52;;;22.30;46.40;;;;;;5049624;28;20121;-47
2020/12/23 11:44:19;;;;;;;1.40;0.77;;;22.30;46.40;;;;;;5046865;28;20544;-49
2020/12/23 11:46:48;;;;;;;1.73;0.82;;;22.30;46.60;;;;;;5050076;28;20032;-47
2020/12/23 11:49:14;;;;;;;2.15;0.88;;;22.30;46.90;;;;;;5055829;28;20029;-45
2020/12/23 11:51:39;;;;;;;3.45;0.80;;;22.20;46.60;;;;;;5032684;28;20029;-39
2020/12/23 11:54:05;;;;;;;4.72;0.90;;;22.20;46.60;;;;;;5051265;28;20047;-42
2020/12/23 11:56:31;;;;;;;2.00;1.15;;;22.20;46.70;;;;;;5058094;28;20032;-49
2020/12/23 11:58:56;;;;;;;4.65;1.35;;;22.20;46.70;;;;;;5061086;28;20020;-45
2020/12/23 12:01:22;;;;;;;1.80;1.33;;;22.20;46.90;;;;;;5051473;28;20025;-45
2020/12/23 12:03:48;;;;;;;2.05;1.52;;;22.10;47.00;;;;;;5051410;28;20143;-46
2020/12/23 12:06:17;;;;;;;4.95;1.15;;;22.10;47.00;;;;;;5046586;28;20393;-45
2020/12/23 12:08:42;;;;;;;3.42;1.17;;;22.10;46.90;;;;;;5047843;28;20021;-44
2020/12/23 12:11:08;;;;;;;2.38;1.00;;;22.20;46.90;;;;;;5058274;28;20389;-44
2020/12/23 12:13:34;;;;;;;2.42;1.38;;;22.10;46.80;;;;;;5060301;28;20032;-44
2020/12/23 12:15:59;;;;;;;3.38;1.58;;;22.10;46.90;;;;;;5061906;28;20035;-46
2020/12/23 12:18:25;;;;;;;2.40;1.42;;;22.10;46.90;;;;;;5055474;28;20033;-45
2020/12/23 12:20:50;;;;;;;3.65;1.55;;;22.10;46.90;;;;;;5057016;28;20024;-45
2020/12/23 12:23:16;;;;;;;2.55;1.10;;;22.10;46.90;;;;;;5052079;28;20032;-46
2020/12/23 12:25:41;;;;;;;3.75;1.20;;;22.10;46.90;;;;;;5062448;28;20115;-46
2020/12/23 12:28:07;;;;;;;3.85;1.52;;;22.10;46.90;;;;;;5062616;28;20102;-44
2020/12/23 12:30:35;;;;;;;3.33;1.35;;;22.10;46.90;;;;;;5065947;28;20102;-46
2020/12/23 12:33:00;;;;;;;2.05;1.23;;;22.00;46.80;;;;;;5060038;28;20190;-44
2020/12/23 12:35:26;;;;;;;2.40;1.45;;;22.00;46.80;;;;;;5038133;28;20048;-46
2020/12/23 12:37:52;;;;;;;2.42;1.38;;;22.00;46.80;;;;;;5061147;28;20066;-44
2020/12/23 12:40:17;;;;;;;3.55;1.45;;;22.00;46.80;;;;;;5056242;28;20055;-45
2020/12/23 12:42:43;;;;;;;2.45;1.40;;;22.00;46.80;;;;;;5065175;28;20025;-49
2020/12/23 12:45:08;;;;;;;4.55;0.95;;;22.00;46.80;;;;;;5058535;28;20021;-41
2020/12/23 12:47:34;;;;;;;2.50;1.20;;;22.00;47.00;;;;;;5059479;28;20060;-44
2020/12/23 12:49:59;;;;;;;1.65;1.13;;;22.00;47.00;;;;;;5062031;28;20033;-46
2020/12/23 12:52:25;;;;;;;2.78;1.10;;;22.00;47.00;;;;;;5065147;28;20405;-46
2020/12/23 12:54:50;;;;;;;1.90;0.95;;;22.00;47.10;;;;;;5066964;28;20520;-45